Timeline UpdatesTrip UpdatesNews PostsPvt PostsTravel TipsAdmin PostsConv PostsFollowed PostsChat RequestsBlog PostsPNR Posts

Disclaimer
Search
 
 
Thu Sep 18, 2014 13:11:35 ISTHomeTrainsΣChainsAtlasPNRForumGalleryNewsFAQTripsMembersLoginFeedback
No Recent News for this Train
Other Trains in the News **new
Latest...
.
Sat May 05, 2012 (10:37PM)
⇐ Return Journey: Train# 54803

54804/Ahmedabad Jodhpur Passenger (UnReserved)

Time-Table HAS CHANGED.
Sep 04 (10:57AM)
Change Departure Station:
Change Arrival Station:
Post a Train Travel TipPost a Train Travel Tip **new
Post a Comment/Question/Picture/VideoPost a Comment/Question/Picture/Video
Pantry/Catering
✕ NO Pantry Car
✕ NO Catering
RSA - Rake Sharing
3 different rounds (6 services) are run by the rakes of this train. 54803 Jodhpur (JU) - Ahemedabad (ADI) becomes 54806 for Ahmedabad - Ajmer (AII) which further goes to Jaipur (JP) as 54807. 54808 comes from Jaipur to Ajmer which further goes to Ahmedabad as 54805 and becomes...
Read more...
54804 from Ahmedabad to Jodhpur.
Rake/Coach Composition
Loco
WDM 2A ABR Shed.
News    PNR    Forum    Time-Table    Availability    Fare Chart    Map    Arr/Dep History    Trips    Gallery    ΣChains    X/O    Timeline    
Travel Time: 3h 30m    12 halts    Distance: 120 km    Avg Speed: 34 km/hr
Type: Passenger
Zone: NWR/North Western
Departs @ 16:50
Platform# ???
SMTWTFS
Banta Raghunathgarh/BGG 
Arrives @ 20:20
Platform# ???
SMTWTFS
Jodhpur Junction/JU 

12 halts. 13 intermediate Stations between Banta Raghunathgarh and Jodhpur Junction

Show ALL intermediate Stations  Show Old Time-Table

#CodeStation NameX/OArrivesAvgDepartsAvgHaltPFDay#KmSpeedElevZoneAddress
1ADIAhmedabad Junction (12)  -06:15-91-335.62551mWRAhmedabad, Gujarat
2SBTSabarmati Junction (3)  06:28-06:30-2m--1-330.22952mWRAhmedabad, Gujarat
3KHDBKhodiyar  06:52-06:54-2m--1-319.72664mWRKhodiyar, Gujarat
4KLLKalol (3)  07:08 07:19-07:10 07:21-2m--1-308.85971mWRKalol, Gujarat
5JULJhulasan (3)X  07:22 07:31-07:24 07:33-2m--1-299.05677mWRMehsana, Gujarat
6DNWDangarwaX  07:39 07:40-07:41 07:42-2m--1-292.45883mWRJagudan, Gujarat
7UMNAmbliyasan  07:48 07:50-07:50 07:52-2m--1-284.63990mWRMehsana, Gujarat
8JDNJagudanX  08:04-08:06-2m--1-276.81790mWRKochva Road, Gujarat
9MSHMahesana Junction (6)X  08:40-08:50-10m--1-267.07495mWRMehsana, Gujarat
10BHUBhandu Motidau  08:59-09:01-2m--1-255.97297mWRMahesana, Gujarat
11UJAUnjha  09:10-09:12-2m--1-245.163116mWRUnjha, Gujarat
12KMLIKamli  09:19-09:21-2m--1-237.863126mWRChhapi, Gujarat
13SIDSiddhpur  09:27-09:29-2m--1-231.442136mWRState Highway 41, Gujarat
14DRWDharewada  09:37-09:39-2m--1-225.957145mWRUnjha, Gujarat
15CHPChhapi  09:47-09:49-2m--1-218.259169mWRBanaskantha, Gujarat
16UMUmardashi  09:57-09:59-2m--1-210.421187mWRChitrasani, Gujarat
17PNUPalanpur Junction (5)XO  10:23-10:28-5m--1-202.045216mWRPalanpur, Gujarat
18KRJDKarjodaXO  10:36-10:37-1m--1-196.054234mNWRChhapi, Gujarat
19CTTChitrasani  10:43-10:44-1m--1-190.544225mNWRChitrasani, Gujarat
20JTYJethiO  10:50-10:52 10:51-2 1m--1-186.146212mNWRBANASKANTHA, Gujarat
21IQGIqbal GadhXO  10:59-11:00-1m--1-180.064209mNWRBanaskantha, Gujarat
22SZASarotra Road  11:07-11:08-1m--1-172.554216mNWRSarotra, Gujarat
23SIMShri AmirgadhX  11:14-11:15-1m--1-167.156229mNWRAmirgadh, Gujarat
24MAAMavalXO  11:24-11:25-1m--1-158.822245mNWRNational Highway 14, Rajasthan
25ABRAbu Road (3)X  11:50-12:15-25m11-149.421264mNWRSirohi Dist, Rajasthan
26MXOMorthala  12:24-12:25-1m--1-146.344267mNWRNH 14, Rajasthan
27KWIKivarli  12:33-12:34-1m--1-140.443281mNWRShri Amirgadh, Rajasthan
28BMNBhimana  12:45-12:46-1m--1-132.657313mNWRAbu Road, Rajasthan
29SRPJSwarupGanjO  12:55-12:56-1m--1-124.026334mNWRSirohi Road, Rajasthan
30BNSBanas  13:17 13:15-13:18 13:16-1m--1-115.676347mNWRSirohi Road, Rajasthan
31SOHSirohi Road (2)  13:29 13:24-13:30 13:25-1m--1-105.553369mNWRPindwara, Rajasthan
32KVJKeshavganjX  13:42 13:34-13:43 13:35-1m--1-97.660393mNWRJawai Bandh, Rajasthan
33NANANanaX  14:34 13:44-14:35 13:45-1m--1-88.641355mNWRNana, Rajasthan
34KTRKothar  15:09 13:54-15:10 13:55-1m--1-82.454346mNWRPali, Rajasthan
35MOIMori Bera  15:17 14:02-15:18 14:03-1m--1-76.163323mNWRNana, Rajasthan
36JWBJawai Bandh  15:27 14:12-15:28 14:13-1m--1-66.745292mNWRPali, Rajasthan
37BRLYBiroliyaX  15:37 14:24-15:38 14:25-1m--1-58.548294mNWRBiroliya Rd, Rajasthan
38FAFalna (2)  15:47 14:35-15:50 14:40-3 5m--1-50.561282mNWRFalna, Rajasthan
39KZQKhimel  15:57 14:48-15:58 14:49-1m--1-42.455277mNWRJawai Bandh, Rajasthan
40RANIRaniXO  16:05 14:56-16:06 14:57-1m--1-36.16280mNWRRania, Rajasthan
41BGPRBhagwanpura  16:15-16:16-1m--1-28.057276mNWRSomesar, Rajasthan
42JALJawali  16:24-16:25-1m--1-20.463270mNWRRania, Rajasthan
43SOSSomesar  16:33-16:34-1m--1-12.052269mNWRSomesar, Rajasthan
44BWABhinwaliyaX  16:41-16:42-1m--1-6.051268mNWRPindwara, Rajasthan
45BGGBanta Raghunathgarh»  16:49-16:50-1m--10.023266mNWRSomesar, Rajasthan
46AUWAAuwa (2)X  16:58 17:09-16:59 17:10-1m--17.335265mNWRSomesar, Rajasthan
47MJMarwar Junction (4)  17:25-17:35-10m--116.063267mNWRMarwar Junction, Rajasthan
48RKZRajkiawas  17:44 17:45-17:46-2 1m--126.562245mNWRMarwar, Rajasthan
49BOMBomadraX  17:54 17:55-17:56-2 1m--135.761234mNWRPali Marwar, Rajasthan
50PMYPali Marwar (2)  18:07-18:09-2m--146.957221mNWRPali, Rajasthan
51KAIKairla  18:25-18:27 18:26-2 1m--162.061213mNWRPali, Rajasthan
52RTRohat  18:38 18:39-18:40-2 1m--175.260183mNWRSH 64, Rajasthan
53LUNILuni Junction (3)  18:53-18:56-3m--188.164180mNWRLuni, Rajasthan
54HWTHanwantX  19:02-19:04-2m--194.543185mNWRBasni, Rajasthan
55SZSalawasX  19:17-19:19-2m--1103.971193mNWRLuni, Rajasthan
56BANEBasniXO  19:28 19:27-19:30 19:29-2m--1113.37219mNWRJodhpur, Rajasthan
57BGKTBhagat Ki Kothi (3)  20:03 19:57-20:05 19:58-2 1m--1116.410229mNWRJodhpur, Rajasthan
58JUJodhpur Junction (5)•  20:35 20:20----1119.9-241mNWRJodhpur, Rajasthan
Scroll to Top
Scroll to Bottom